Time;durP1;ratioP1;P1;durP2;ratioP2;P2;SDS_P1;SDS_P2;PMS_P1;PMS_P2;Temp;Humidity;BMP_temperature;BMP_pressure;BME280_temperature;BME280_humidity;BME280_pressure;Samples;Min_cycle;Max_cycle;Signal;HPM_P1;HPM_P2
2021/11/11 00:01:50;;;;;;;;;;;9.80;59.30;;;;;;5093161;28;19919;-67
2021/11/11 00:04:19;;;;;;;;;;;9.80;59.40;;;;;;5093403;28;19984;-68
2021/11/11 00:06:45;;;;;;;;;;;9.80;59.30;;;;;;5093387;28;19962;-67
2021/11/11 00:09:11;;;;;;;;;;;9.80;59.30;;;;;;5091571;28;19912;-68
2021/11/11 00:11:37;;;;;;;;;;;9.80;59.30;;;;;;5074159;28;19992;-67
2021/11/11 00:14:03;;;;;;;;;;;9.70;59.20;;;;;;5072881;28;19926;-67
2021/11/11 00:16:28;;;;;;;;;;;9.70;59.10;;;;;;5072982;28;20007;-67
2021/11/11 00:18:54;;;;;;;;;;;9.70;59.10;;;;;;5093133;28;20349;-67
2021/11/11 00:21:19;;;;;;;;;;;9.70;59.00;;;;;;5091133;28;19912;-67
2021/11/11 00:23:45;;;;;;;;;;;9.70;59.00;;;;;;5092815;28;19912;-67
2021/11/11 00:26:11;;;;;;;;;;;9.70;59.00;;;;;;5092821;28;20328;-67
2021/11/11 00:28:36;;;;;;;;;;;9.60;59.00;;;;;;5086217;28;19934;-67
2021/11/11 00:31:02;;;;;;;;;;;9.60;59.20;;;;;;5093221;28;20451;-67
2021/11/11 00:33:27;;;;;;;;;;;9.60;59.30;;;;;;5093175;28;20285;-67
2021/11/11 00:35:53;;;;;;;;;;;9.60;59.30;;;;;;5093121;28;20002;-67
2021/11/11 00:38:19;;;;;;;;;;;9.60;59.30;;;;;;5087583;28;19913;-67
2021/11/11 00:40:45;;;;;;;;;;;9.60;59.30;;;;;;5093180;28;19909;-66
2021/11/11 00:43:10;;;;;;;;;;;9.60;59.30;;;;;;5090604;28;19935;-67
2021/11/11 00:45:38;;;;;;;;;;;9.60;59.20;;;;;;5093046;28;19912;-66
2021/11/11 00:48:04;;;;;;;;;;;9.50;59.20;;;;;;5080598;28;19913;-67
2021/11/11 00:50:30;;;;;;;;;;;9.50;59.30;;;;;;5072459;28;19935;-66
2021/11/11 00:52:56;;;;;;;;;;;9.50;59.50;;;;;;5076620;28;20370;-66
2021/11/11 00:55:22;;;;;;;;;;;9.50;59.50;;;;;;5076459;28;19923;-67
2021/11/11 00:57:47;;;;;;;;;;;9.50;59.60;;;;;;5085303;28;19912;-67
2021/11/11 01:00:15;;;;;;;;;;;9.50;59.60;;;;;;5095616;28;19908;-66
2021/11/11 01:02:43;;;;;;;;;;;9.40;59.50;;;;;;5095287;28;19965;-67
2021/11/11 01:05:09;;;;;;;;;;;9.40;59.50;;;;;;5096837;28;20281;-67
2021/11/11 01:07:35;;;;;;;;;;;9.40;59.50;;;;;;5088974;28;19912;-67
2021/11/11 01:10:03;;;;;;;;;;;9.40;59.60;;;;;;5075929;28;19919;-67
2021/11/11 01:12:28;;;;;;;;;;;9.40;59.60;;;;;;5076183;28;19913;-68
2021/11/11 01:14:54;;;;;;;;;;;9.40;59.60;;;;;;5076127;28;19927;-67
2021/11/11 01:17:19;;;;;;;;;;;9.40;59.70;;;;;;5079368;28;19912;-67
2021/11/11 01:19:45;;;;;;;;;;;9.30;59.60;;;;;;5095270;28;19931;-67
2021/11/11 01:22:11;;;;;;;;;;;9.30;59.70;;;;;;5079593;28;19912;-67
2021/11/11 01:24:36;;;;;;;;;;;9.30;59.70;;;;;;5096360;28;20290;-67
2021/11/11 01:27:02;;;;;;;;;;;9.30;59.70;;;;;;5091746;28;19931;-67
2021/11/11 01:29:28;;;;;;;;;;;9.20;59.80;;;;;;5074703;28;19909;-67
2021/11/11 01:31:53;;;;;;;;;;;9.20;59.80;;;;;;5075954;28;19909;-66
2021/11/11 01:34:19;;;;;;;;;;;9.20;59.80;;;;;;5075849;28;20327;-67
2021/11/11 01:36:45;;;;;;;;;;;9.20;59.70;;;;;;5089110;28;19996;-67
2021/11/11 01:39:10;;;;;;;;;;;9.10;59.80;;;;;;5093482;28;19966;-67
2021/11/11 01:41:36;;;;;;;;;;;9.10;59.80;;;;;;5095719;28;19916;-66
2021/11/11 01:44:02;;;;;;;;;;;9.10;59.80;;;;;;5096068;28;19939;-67
2021/11/11 01:46:27;;;;;;;;;;;9.10;59.80;;;;;;5096027;28;19958;-67
2021/11/11 01:48:53;;;;;;;;;;;9.10;59.80;;;;;;5078313;28;19912;-67
2021/11/11 01:51:20;;;;;;;;;;;9.00;59.70;;;;;;5075449;28;19912;-67
2021/11/11 01:53:46;;;;;;;;;;;9.00;59.80;;;;;;5075584;28;19932;-67
2021/11/11 01:56:12;;;;;;;;;;;9.10;60.00;;;;;;5075126;28;19913;-66
2021/11/11 01:58:38;;;;;;;;;;;9.10;60.10;;;;;;5089979;28;19955;-67
2021/11/11 02:01:04;;;;;;;;;;;9.10;60.20;;;;;;5094540;28;19924;-67
2021/11/11 02:03:29;;;;;;;;;;;9.10;60.40;;;;;;5078226;28;20284;-66
2021/11/11 02:05:55;;;;;;;;;;;9.20;60.50;;;;;;5075001;28;19958;-66
2021/11/11 02:08:22;;;;;;;;;;;9.20;60.50;;;;;;5086789;28;19912;-66
2021/11/11 02:10:47;;;;;;;;;;;9.30;60.60;;;;;;5095357;28;19976;-67
2021/11/11 02:13:13;;;;;;;;;;;9.40;60.80;;;;;;5094728;28;19920;-66
2021/11/11 02:15:39;;;;;;;;;;;9.40;60.80;;;;;;5094796;28;20411;-66
2021/11/11 02:18:06;;;;;;;;;;;9.50;60.90;;;;;;5084086;28;19913;-66
2021/11/11 02:20:34;;;;;;;;;;;9.60;60.90;;;;;;5074523;28;19913;-66
2021/11/11 02:23:01;;;;;;;;;;;9.70;60.80;;;;;;5073628;28;19995;-66
2021/11/11 02:25:28;;;;;;;;;;;9.80;60.80;;;;;;5089170;28;20353;-67
2021/11/11 02:27:55;;;;;;;;;;;9.80;60.70;;;;;;5085515;28;19999;-67
2021/11/11 02:30:23;;;;;;;;;;;9.90;60.70;;;;;;5074982;28;19965;-67
2021/11/11 02:32:48;;;;;;;;;;;9.90;60.50;;;;;;5089501;28;19919;-67
2021/11/11 02:35:15;;;;;;;;;;;10.00;60.50;;;;;;5094955;28;19912;-67
2021/11/11 02:37:40;;;;;;;;;;;10.00;60.30;;;;;;5095259;28;19994;-67
2021/11/11 02:40:07;;;;;;;;;;;10.10;60.40;;;;;;5094095;28;20394;-67
2021/11/11 02:42:34;;;;;;;;;;;10.10;60.20;;;;;;5087424;28;20269;-67
2021/11/11 02:45:02;;;;;;;;;;;10.20;60.20;;;;;;5094804;28;19922;-67
2021/11/11 02:47:28;;;;;;;;;;;10.20;60.00;;;;;;5094421;28;19955;-67
2021/11/11 02:49:54;;;;;;;;;;;10.20;60.00;;;;;;5091076;28;19912;-67
2021/11/11 02:52:20;;;;;;;;;;;10.20;59.90;;;;;;5084527;28;19922;-66
2021/11/11 02:54:46;;;;;;;;;;;10.20;59.90;;;;;;5072639;28;19939;-66
2021/11/11 02:57:28;;;;;;;;;;;10.30;59.90;;;;;;5054577;28;19909;-66
2021/11/11 02:59:55;;;;;;;;;;;10.30;59.80;;;;;;5092755;28;19957;-66
2021/11/11 03:02:25;;;;;;;;;;;10.30;59.80;;;;;;5083190;28;19912;-67
2021/11/11 03:04:50;;;;;;;;;;;10.30;59.80;;;;;;5074060;28;19909;-67
2021/11/11 03:07:16;;;;;;;;;;;10.30;59.70;;;;;;5073925;28;19913;-67
2021/11/11 03:09:42;;;;;;;;;;;10.30;59.70;;;;;;5073971;28;19965;-67
2021/11/11 03:12:08;;;;;;;;;;;10.40;59.70;;;;;;5081721;28;20010;-67
2021/11/11 03:14:34;;;;;;;;;;;10.40;59.70;;;;;;5091821;28;19966;-67
2021/11/11 03:17:01;;;;;;;;;;;10.40;59.70;;;;;;5072270;28;19963;-67
2021/11/11 03:19:26;;;;;;;;;;;10.40;59.70;;;;;;5067209;28;20003;-67
2021/11/11 03:21:52;;;;;;;;;;;10.40;59.70;;;;;;5078068;28;19998;-67
2021/11/11 03:24:17;;;;;;;;;;;10.40;59.70;;;;;;5092877;28;19973;-68
2021/11/11 03:26:43;;;;;;;;;;;10.50;59.70;;;;;;5085491;28;19913;-67
2021/11/11 03:29:09;;;;;;;;;;;10.50;59.60;;;;;;5072047;28;19919;-67
2021/11/11 03:31:34;;;;;;;;;;;10.60;59.70;;;;;;5074592;28;20014;-67
2021/11/11 03:34:00;;;;;;;;;;;10.60;59.60;;;;;;5092676;28;19913;-67
2021/11/11 03:36:25;;;;;;;;;;;10.60;59.60;;;;;;5090423;28;19924;-67
2021/11/11 03:38:51;;;;;;;;;;;10.70;59.60;;;;;;5092966;28;20329;-68
2021/11/11 03:41:16;;;;;;;;;;;10.70;59.60;;;;;;5090276;28;19944;-67
2021/11/11 03:43:42;;;;;;;;;;;10.70;59.50;;;;;;5078469;28;19912;-67
2021/11/11 03:46:11;;;;;;;;;;;10.70;59.50;;;;;;5092421;28;20384;-67
2021/11/11 03:48:36;;;;;;;;;;;10.70;59.40;;;;;;5092391;28;20276;-67
2021/11/11 03:51:02;;;;;;;;;;;10.70;59.30;;;;;;5092372;28;19911;-68
2021/11/11 03:53:28;;;;;;;;;;;10.80;59.30;;;;;;5074033;28;20032;-67
2021/11/11 03:55:54;;;;;;;;;;;10.80;59.30;;;;;;5072193;28;19916;-67
2021/11/11 03:58:19;;;;;;;;;;;10.80;59.30;;;;;;5072398;28;19987;-67
2021/11/11 04:00:45;;;;;;;;;;;10.80;59.20;;;;;;5070983;28;20003;-68
2021/11/11 04:03:11;;;;;;;;;;;10.80;59.20;;;;;;5069805;28;20313;-67
2021/11/11 04:05:37;;;;;;;;;;;10.80;59.20;;;;;;5072370;28;19908;-68
2021/11/11 04:08:02;;;;;;;;;;;10.90;59.20;;;;;;5072114;28;19958;-68
2021/11/11 04:10:28;;;;;;;;;;;10.90;59.20;;;;;;5072080;28;19913;-68
2021/11/11 04:12:54;;;;;;;;;;;10.90;59.20;;;;;;5083370;28;19912;-68
2021/11/11 04:15:20;;;;;;;;;;;10.90;59.20;;;;;;5092262;28;20310;-67
2021/11/11 04:17:45;;;;;;;;;;;10.90;59.10;;;;;;5091071;28;20007;-67
2021/11/11 04:20:11;;;;;;;;;;;11.00;59.20;;;;;;5058966;28;20384;-68
2021/11/11 04:22:37;;;;;;;;;;;11.00;59.20;;;;;;5081936;28;20002;-68
2021/11/11 04:25:04;;;;;;;;;;;11.00;59.10;;;;;;5092217;28;19915;-68
2021/11/11 04:27:38;;;;;;;;;;;11.00;59.00;;;;;;5090162;28;19919;-67
2021/11/11 04:30:15;;;;;;;;;;;11.00;59.00;;;;;;5091957;28;19920;-68
2021/11/11 04:32:41;;;;;;;;;;;11.00;59.00;;;;;;5087523;28;19919;-67
2021/11/11 04:35:07;;;;;;;;;;;11.10;59.00;;;;;;5092129;28;19912;-68
2021/11/11 04:37:49;;;;;;;;;;;11.10;59.00;;;;;;5091735;28;19912;-67
2021/11/11 05:04:26;;;;;;;;;;;11.10;58.70;;;;;;5009673;28;19918;-67
2021/11/11 05:06:52;;;;;;;;;;;11.20;58.80;;;;;;5022710;28;19920;-67
2021/11/11 05:09:17;;;;;;;;;;;11.20;58.80;;;;;;5029027;28;19917;-67
2021/11/11 05:11:43;;;;;;;;;;;11.20;58.70;;;;;;5027643;28;19932;-67
2021/11/11 05:14:09;;;;;;;;;;;11.20;58.70;;;;;;5009328;28;20441;-68
2021/11/11 05:16:34;;;;;;;;;;;11.20;58.60;;;;;;5009504;28;20081;-68
2021/11/11 05:19:00;;;;;;;;;;;11.20;58.60;;;;;;5020555;28;19921;-68
2021/11/11 05:21:26;;;;;;;;;;;11.20;58.50;;;;;;5010015;28;20458;-68
2021/11/11 05:23:51;;;;;;;;;;;11.20;58.50;;;;;;5019786;28;19923;-68
2021/11/11 05:26:18;;;;;;;;;;;11.20;58.50;;;;;;5051308;28;20331;-68
2021/11/11 05:28:43;;;;;;;;;;;11.20;58.50;;;;;;5051298;28;19908;-68
2021/11/11 05:31:09;;;;;;;;;;;11.20;58.50;;;;;;5053553;28;20385;-68
2021/11/11 05:33:35;;;;;;;;;;;11.20;58.50;;;;;;5073267;28;19940;-68
2021/11/11 05:36:00;;;;;;;;;;;11.30;58.50;;;;;;5071206;28;19913;-68
2021/11/11 05:38:26;;;;;;;;;;;11.20;58.40;;;;;;5072510;28;20334;-68
2021/11/11 05:40:51;;;;;;;;;;;11.30;58.40;;;;;;5074881;28;19904;-68
2021/11/11 05:43:17;;;;;;;;;;;11.30;58.40;;;;;;5087653;28;20061;-68
2021/11/11 05:45:42;;;;;;;;;;;11.30;58.30;;;;;;5094684;28;19916;-68
2021/11/11 05:48:08;;;;;;;;;;;11.30;58.60;;;;;;5075209;28;20385;-68
2021/11/11 05:50:34;;;;;;;;;;;11.30;58.30;;;;;;5073121;28;19916;-68
2021/11/11 05:53:00;;;;;;;;;;;11.30;58.30;;;;;;5085014;28;19997;-68
2021/11/11 05:55:26;;;;;;;;;;;11.30;58.30;;;;;;5094811;28;19912;-68
2021/11/11 05:57:51;;;;;;;;;;;11.30;58.30;;;;;;5094396;28;20403;-68
2021/11/11 06:00:18;;;;;;;;;;;11.30;58.30;;;;;;5094493;28;19957;-68
2021/11/11 06:02:44;;;;;;;;;;;11.30;58.20;;;;;;5086214;28;20335;-68
2021/11/11 06:05:10;;;;;;;;;;;11.30;58.20;;;;;;5074686;28;20284;-68
2021/11/11 06:07:36;;;;;;;;;;;11.30;58.10;;;;;;5074388;28;19915;-68
2021/11/11 06:10:02;;;;;;;;;;;11.30;58.10;;;;;;5075236;28;19916;-68
2021/11/11 06:12:28;;;;;;;;;;;11.30;57.90;;;;;;5078117;28;20003;-68
2021/11/11 06:14:53;;;;;;;;;;;11.20;57.90;;;;;;5093790;28;20022;-68
2021/11/11 06:17:19;;;;;;;;;;;11.20;57.90;;;;;;5094315;28;19908;-67
2021/11/11 06:19:46;;;;;;;;;;;11.20;58.00;;;;;;5067578;28;20301;-68
2021/11/11 06:22:12;;;;;;;;;;;11.20;58.10;;;;;;5074302;28;19916;-68
2021/11/11 06:24:37;;;;;;;;;;;11.20;58.10;;;;;;5073192;28;19909;-67
2021/11/11 06:27:04;;;;;;;;;;;11.20;58.10;;;;;;5073902;28;19967;-68
2021/11/11 06:29:29;;;;;;;;;;;11.20;58.20;;;;;;5073953;28;19908;-68
2021/11/11 06:31:55;;;;;;;;;;;11.20;58.10;;;;;;5072614;28;19919;-67
2021/11/11 06:34:21;;;;;;;;;;;11.20;58.00;;;;;;5072928;28;19923;-67
2021/11/11 06:36:46;;;;;;;;;;;11.20;58.00;;;;;;5073702;28;19912;-67
2021/11/11 06:39:12;;;;;;;;;;;11.20;58.10;;;;;;5073803;28;19908;-67
2021/11/11 06:41:38;;;;;;;;;;;11.20;58.10;;;;;;5078324;28;19919;-68
2021/11/11 06:44:04;;;;;;;;;;;11.20;58.10;;;;;;5076748;28;19913;-68
2021/11/11 06:46:30;;;;;;;;;;;11.20;58.10;;;;;;5093445;28;19923;-67
2021/11/11 06:48:56;;;;;;;;;;;11.30;58.10;;;;;;5077087;28;19944;-67
2021/11/11 06:51:22;;;;;;;;;;;11.30;58.00;;;;;;5073380;28;20332;-67
2021/11/11 06:53:48;;;;;;;;;;;11.30;57.90;;;;;;5089034;28;20019;-67
2021/11/11 06:56:14;;;;;;;;;;;11.30;57.90;;;;;;5092030;28;19918;-68
2021/11/11 06:58:40;;;;;;;;;;;11.30;58.00;;;;;;5093694;28;20375;-68
2021/11/11 07:01:06;;;;;;;;;;;11.30;57.90;;;;;;5093215;28;19912;-67
2021/11/11 07:03:32;;;;;;;;;;;11.30;57.90;;;;;;5079301;28;20000;-67
2021/11/11 07:05:58;;;;;;;;;;;11.30;57.80;;;;;;5072891;28;19908;-68
2021/11/11 07:08:24;;;;;;;;;;;11.30;57.70;;;;;;5053228;28;20457;-68
2021/11/11 07:10:52;;;;;;;;;;;11.30;57.70;;;;;;5053101;28;19908;-67
2021/11/11 07:13:18;;;;;;;;;;;11.30;57.70;;;;;;5081315;28;19916;-67
2021/11/11 07:15:46;;;;;;;;;;;11.30;57.70;;;;;;5092983;28;20289;-67
2021/11/11 07:18:13;;;;;;;;;;;11.40;57.70;;;;;;5084681;28;19939;-67
2021/11/11 07:20:43;;;;;;;;;;;11.30;58.20;;;;;;5068587;28;20258;-67
2021/11/11 07:23:09;;;;;;;;;;;11.40;57.70;;;;;;5081950;28;20343;-68
2021/11/11 07:25:35;;;;;;;;;;;11.40;57.50;;;;;;5093055;28;20011;-67
2021/11/11 07:28:01;;;;;;;;;;;11.40;57.50;;;;;;5092548;28;20045;-67
2021/11/11 07:30:26;;;;;;;;;;;11.40;57.50;;;;;;5089948;28;19921;-67
2021/11/11 07:32:52;;;;;;;;;;;11.30;57.40;;;;;;5079341;28;19912;-68
2021/11/11 07:35:18;;;;;;;;;;;11.30;57.40;;;;;;5092908;28;20014;-67
2021/11/11 07:37:45;;;;;;;;;;;11.30;57.40;;;;;;5077915;28;19923;-68
2021/11/11 07:40:13;;;;;;;;;;;11.30;57.30;;;;;;5072710;28;19908;-68
2021/11/11 07:42:39;;;;;;;;;;;11.40;57.30;;;;;;5076959;28;19912;-68
2021/11/11 07:45:06;;;;;;;;;;;11.40;57.20;;;;;;5092522;28;19935;-67
2021/11/11 07:47:31;;;;;;;;;;;11.40;57.20;;;;;;5078275;28;19912;-67
2021/11/11 07:49:58;;;;;;;;;;;11.40;57.10;;;;;;5072231;28;20027;-68
2021/11/11 07:52:24;;;;;;;;;;;11.40;57.00;;;;;;5073172;28;20393;-67
2021/11/11 07:54:50;;;;;;;;;;;11.40;57.00;;;;;;5092666;28;19912;-67
2021/11/11 07:57:15;;;;;;;;;;;11.50;57.00;;;;;;5091835;28;19923;-67
2021/11/11 07:59:42;;;;;;;;;;;11.50;56.90;;;;;;5092673;28;19924;-67
2021/11/11 08:02:08;;;;;;;;;;;11.50;56.90;;;;;;5091320;28;19908;-68
2021/11/11 08:04:33;;;;;;;;;;;11.60;57.00;;;;;;5072263;28;20366;-67
2021/11/11 08:06:59;;;;;;;;;;;11.60;56.90;;;;;;5072011;28;19916;-67
2021/11/11 08:09:25;;;;;;;;;;;11.60;56.80;;;;;;5072026;28;19912;-68
2021/11/11 08:11:50;;;;;;;;;;;11.70;56.80;;;;;;5078920;28;19949;-68
2021/11/11 08:14:16;;;;;;;;;;;11.70;56.70;;;;;;5075347;28;19966;-68
2021/11/11 08:16:41;;;;;;;;;;;11.70;56.60;;;;;;5072031;28;19921;-68
2021/11/11 08:19:07;;;;;;;;;;;11.80;56.50;;;;;;5069575;28;19919;-67
2021/11/11 08:21:33;;;;;;;;;;;11.80;56.40;;;;;;5072180;28;19944;-68
2021/11/11 08:23:59;;;;;;;;;;;11.80;56.40;;;;;;5086166;28;20331;-67
2021/11/11 08:26:25;;;;;;;;;;;11.90;56.40;;;;;;5092088;28;19912;-67
2021/11/11 08:28:50;;;;;;;;;;;11.90;56.30;;;;;;5092337;28;19915;-67
2021/11/11 08:31:17;;;;;;;;;;;11.90;56.10;;;;;;5089536;28;20403;-67
2021/11/11 08:33:43;;;;;;;;;;;11.90;56.10;;;;;;5070963;28;19909;-67
2021/11/11 08:36:08;;;;;;;;;;;11.90;55.90;;;;;;5073092;28;19912;-68
2021/11/11 08:38:34;;;;;;;;;;;11.90;55.80;;;;;;5052076;28;20433;-67
2021/11/11 08:41:00;;;;;;;;;;;11.90;55.80;;;;;;5061934;28;20230;-68
2021/11/11 08:43:26;;;;;;;;;;;11.90;55.80;;;;;;5072989;28;19934;-68
2021/11/11 08:45:52;;;;;;;;;;;11.90;55.70;;;;;;5072108;28;19939;-68
2021/11/11 08:48:18;;;;;;;;;;;11.80;55.60;;;;;;5071206;28;19912;-68
2021/11/11 08:50:43;;;;;;;;;;;11.80;55.60;;;;;;5071854;28;19913;-68
2021/11/11 08:53:09;;;;;;;;;;;11.80;55.80;;;;;;5088751;28;20362;-68
2021/11/11 08:55:35;;;;;;;;;;;11.80;55.90;;;;;;5092079;28;19916;-68
2021/11/11 08:58:04;;;;;;;;;;;11.80;55.90;;;;;;5091792;28;19919;-68
2021/11/11 09:00:31;;;;;;;;;;;11.80;55.90;;;;;;5091950;28;19908;-68
2021/11/11 09:02:57;;;;;;;;;;;11.80;55.90;;;;;;5089855;28;20285;-67
2021/11/11 09:05:25;;;;;;;;;;;11.80;55.70;;;;;;5091989;28;19912;-68
2021/11/11 09:07:51;;;;;;;;;;;11.80;55.70;;;;;;5091561;28;19908;-67
2021/11/11 09:10:21;;;;;;;;;;;11.80;55.60;;;;;;5091794;28;19912;-67
2021/11/11 09:12:48;;;;;;;;;;;11.80;55.70;;;;;;5077462;28;19931;-67
2021/11/11 09:15:14;;;;;;;;;;;11.80;55.80;;;;;;5075171;28;19972;-67
2021/11/11 09:17:40;;;;;;;;;;;11.80;55.90;;;;;;5089180;28;19912;-67
2021/11/11 09:20:07;;;;;;;;;;;11.80;56.00;;;;;;5094577;28;20293;-68
2021/11/11 09:22:34;;;;;;;;;;;11.90;56.10;;;;;;5094021;28;19916;-68
2021/11/11 09:25:00;;;;;;;;;;;11.90;56.10;;;;;;5093843;28;20003;-67
2021/11/11 09:27:26;;;;;;;;;;;11.90;55.90;;;;;;5095083;28;19916;-68
2021/11/11 09:29:52;;;;;;;;;;;12.00;55.90;;;;;;5095024;28;19953;-67
2021/11/11 09:32:18;;;;;;;;;;;12.00;55.90;;;;;;5084951;28;20385;-68
2021/11/11 09:34:44;;;;;;;;;;;12.00;55.80;;;;;;5075023;28;19912;-68
2021/11/11 09:37:09;;;;;;;;;;;12.10;55.80;;;;;;5074518;28;20377;-68
2021/11/11 09:39:35;;;;;;;;;;;12.10;55.80;;;;;;5073710;28;20442;-67
2021/11/11 09:42:01;;;;;;;;;;;12.10;55.80;;;;;;5076153;28;20007;-67
2021/11/11 09:44:27;;;;;;;;;;;12.10;55.70;;;;;;5073891;28;19913;-67
2021/11/11 09:46:53;;;;;;;;;;;12.20;55.80;;;;;;5074465;28;19959;-68
2021/11/11 09:49:20;;;;;;;;;;;12.20;55.90;;;;;;5084519;28;19911;-68
2021/11/11 09:51:50;;;;;;;;;;;12.30;55.90;;;;;;5090179;28;20251;-67
2021/11/11 09:59:28;;;;;;;;;;;12.40;55.70;;;;;;5074809;28;19927;-66
2021/11/11 10:01:55;;;;;;;;;;;12.40;55.40;;;;;;5079059;28;20061;-66
2021/11/11 10:04:20;;;;;;;;;;;12.40;55.30;;;;;;5094827;28;20285;-67
2021/11/11 10:06:46;;;;;;;;;;;12.40;55.20;;;;;;5094225;28;19960;-68
2021/11/11 10:09:13;;;;;;;;;;;12.40;55.10;;;;;;5094481;28;19918;-68
2021/11/11 10:11:49;;;;;;;;;;;12.50;55.20;;;;;;5091246;28;19912;-69
2021/11/11 10:14:19;;;;;;;;;;;12.50;55.20;;;;;;5074085;28;20017;-68
2021/11/11 10:16:52;;;;;;;;;;;12.50;55.10;;;;;;5073694;28;19921;-68
2021/11/11 10:19:18;;;;;;;;;;;12.50;55.10;;;;;;5060630;28;19952;-68
2021/11/11 10:21:53;;;;;;;;;;;12.50;55.00;;;;;;5071640;28;19963;-68
2021/11/11 10:24:21;;;;;;;;;;;12.50;55.00;;;;;;5085932;28;19918;-69
2021/11/11 10:26:51;;;;;;;;;;;12.50;55.00;;;;;;5076484;28;19916;-68
2021/11/11 10:29:23;;;;;;;;;;;12.50;55.00;;;;;;5074585;28;19912;-68
2021/11/11 10:31:53;;;;;;;;;;;12.50;55.00;;;;;;5074608;28;20284;-68
2021/11/11 10:34:19;;;;;;;;;;;12.60;55.00;;;;;;5074494;28;19916;-68
2021/11/11 10:36:50;;;;;;;;;;;12.60;54.90;;;;;;5074382;28;20333;-68
2021/11/11 10:39:17;;;;;;;;;;;12.60;54.90;;;;;;5072961;28;19913;-68
2021/11/11 10:41:43;;;;;;;;;;;12.70;54.90;;;;;;5074339;28;19908;-68
2021/11/11 10:44:27;;;;;;;;;;;12.70;54.90;;;;;;5058574;28;19909;-67
2021/11/11 10:46:58;;;;;;;;;;;12.70;54.80;;;;;;5069633;28;19923;-68
2021/11/11 10:49:27;;;;;;;;;;;12.70;54.80;;;;;;5074443;28;19916;-68
2021/11/11 10:51:53;;;;;;;;;;;12.70;54.80;;;;;;5074251;28;19914;-68
2021/11/11 10:54:19;;;;;;;;;;;12.70;54.70;;;;;;5074344;28;19916;-68
2021/11/11 10:56:45;;;;;;;;;;;12.70;54.60;;;;;;5074124;28;19912;-68
2021/11/11 10:59:12;;;;;;;;;;;12.70;54.70;;;;;;5080037;28;20392;-68
2021/11/11 11:01:38;;;;;;;;;;;12.80;54.70;;;;;;5080137;28;19909;-68
2021/11/11 11:04:04;;;;;;;;;;;12.70;54.50;;;;;;5081085;28;20156;-68
2021/11/11 11:06:29;;;;;;;;;;;12.80;54.50;;;;;;5074011;28;20362;-68
2021/11/11 11:08:59;;;;;;;;;;;12.80;55.10;;;;;;5077805;28;19912;-67
2021/11/11 11:11:29;;;;;;;;;;;12.80;54.70;;;;;;5074046;28;19915;-67
2021/11/11 11:13:56;;;;;;;;;;;12.80;54.70;;;;;;5071082;28;19921;-67
2021/11/11 11:16:24;;;;;;;;;;;12.80;54.60;;;;;;5071034;28;19970;-67
2021/11/11 11:18:58;;;;;;;;;;;12.80;54.30;;;;;;5073756;28;20289;-68
2021/11/11 11:21:26;;;;;;;;;;;12.80;54.20;;;;;;5073790;28;19912;-68
2021/11/11 11:24:00;;;;;;;;;;;12.80;54.20;;;;;;5073780;28;19999;-68
2021/11/11 11:26:27;;;;;;;;;;;12.70;54.20;;;;;;5075884;28;19915;-68
2021/11/11 11:29:09;;;;;;;;;;;12.70;54.20;;;;;;5073529;28;20346;-67
2021/11/11 11:31:40;;;;;;;;;;;12.70;54.20;;;;;;5074147;28;19924;-68
2021/11/11 11:34:07;;;;;;;;;;;12.60;54.40;;;;;;5075187;28;19912;-68
2021/11/11 11:36:36;;;;;;;;;;;12.60;54.40;;;;;;5072714;28;19919;-68
2021/11/11 11:39:02;;;;;;;;;;;12.60;54.30;;;;;;5073428;28;19958;-68
2021/11/11 11:41:30;;;;;;;;;;;12.60;54.40;;;;;;5076534;28;19915;-68
2021/11/11 11:44:13;;;;;;;;;;;12.60;54.30;;;;;;5073410;28;19919;-68
2021/11/11 11:46:39;;;;;;;;;;;12.60;54.40;;;;;;5073340;28;19951;-68
2021/11/11 11:49:05;;;;;;;;;;;12.60;54.40;;;;;;5073337;28;19919;-68
2021/11/11 11:51:31;;;;;;;;;;;12.60;54.40;;;;;;5075440;28;19908;-68
2021/11/11 11:54:20;;;;;;;;;;;12.60;54.50;;;;;;5071900;28;20370;-68
2021/11/11 11:56:51;;;;;;;;;;;12.50;54.40;;;;;;5073073;28;19974;-68
2021/11/11 11:59:19;;;;;;;;;;;12.50;54.50;;;;;;5068498;28;19919;-68
2021/11/11 12:07:14;;;;;;;;;;;12.50;54.60;;;;;;5072636;28;19974;-68
2021/11/11 12:12:40;;;;;;;;;;;12.60;54.60;;;;;;5073748;28;20370;-68
2021/11/11 12:15:38;;;;;;;;;;;12.60;54.60;;;;;;5072633;28;20362;-69
2021/11/11 12:39:58;;;;;;;;;;;12.90;54.80;;;;;;5072535;28;19973;-67
2021/11/11 12:42:33;;;;;;;;;;;12.90;54.70;;;;;;5072625;28;20007;-68
2021/11/11 12:44:59;;;;;;;;;;;12.90;54.60;;;;;;5078190;28;19916;-68
2021/11/11 12:47:41;;;;;;;;;;;13.00;54.60;;;;;;5093546;28;19965;-67
2021/11/11 12:50:25;;;;;;;;;;;13.00;54.50;;;;;;5096742;28;20365;-67
2021/11/11 12:53:09;;;;;;;;;;;13.00;54.40;;;;;;5096614;28;19908;-68
2021/11/11 12:55:35;;;;;;;;;;;13.00;54.30;;;;;;5081383;28;20333;-68
2021/11/11 12:58:02;;;;;;;;;;;13.00;54.30;;;;;;5076104;28;20358;-67
2021/11/11 13:00:32;;;;;;;;;;;13.00;54.20;;;;;;5076411;28;19908;-68
2021/11/11 13:02:58;;;;;;;;;;;13.00;54.30;;;;;;5076244;28;19995;-68
2021/11/11 13:05:50;;;;;;;;;;;13.00;54.10;;;;;;5088652;28;20087;-68
2021/11/11 13:08:17;;;;;;;;;;;12.90;54.00;;;;;;5093500;28;19951;-68
2021/11/11 13:10:56;;;;;;;;;;;12.90;54.10;;;;;;5077055;28;19955;-67
2021/11/11 13:13:26;;;;;;;;;;;12.90;54.10;;;;;;5075639;28;19966;-68
2021/11/11 13:15:56;;;;;;;;;;;12.80;54.10;;;;;;5090529;28;19938;-68
2021/11/11 13:18:40;;;;;;;;;;;12.80;54.20;;;;;;5096402;28;20335;-68
2021/11/11 13:21:13;;;;;;;;;;;12.80;54.30;;;;;;5096254;28;19915;-66
2021/11/11 13:23:53;;;;;;;;;;;12.80;54.30;;;;;;5096008;28;19908;-66
2021/11/11 13:26:57;;;;;;;;;;;12.80;54.30;;;;;;5076012;28;19908;-68
2021/11/11 15:15:46;;;;;;;;;;;11.90;55.50;;;;;;5090797;28;20280;-68
2021/11/11 16:21:30;;;;;;;;;;;11.50;56.60;;;;;;5065215;28;19920;-68
2021/11/11 16:26:24;;;;;;;;;;;11.50;56.60;;;;;;5052544;28;20334;-68
2021/11/11 16:28:53;;;;;;;;;;;11.40;56.60;;;;;;5053585;28;20362;-68
2021/11/11 16:31:20;;;;;;;;;;;11.40;56.70;;;;;;5092841;28;19908;-68
2021/11/11 16:33:46;;;;;;;;;;;11.40;56.80;;;;;;5092006;28;19915;-68
2021/11/11 16:36:12;;;;;;;;;;;11.40;56.80;;;;;;5072524;28;19912;-68
2021/11/11 16:38:38;;;;;;;;;;;11.40;56.90;;;;;;5071377;28;19908;-68
2021/11/11 16:41:04;;;;;;;;;;;11.50;56.90;;;;;;5072054;28;19913;-68
2021/11/11 16:43:30;;;;;;;;;;;11.40;56.90;;;;;;5072586;28;19931;-68
2021/11/11 16:45:56;;;;;;;;;;;11.50;56.90;;;;;;5072817;28;19913;-68
2021/11/11 16:48:23;;;;;;;;;;;11.40;56.90;;;;;;5072799;28;19916;-68
2021/11/11 16:50:49;;;;;;;;;;;11.40;57.00;;;;;;5089232;28;19912;-68
2021/11/11 16:53:14;;;;;;;;;;;11.40;57.00;;;;;;5093051;28;20004;-68
2021/11/11 16:55:40;;;;;;;;;;;11.40;57.00;;;;;;5092852;28;19955;-68
2021/11/11 16:58:05;;;;;;;;;;;11.40;57.00;;;;;;5092864;28;19957;-68
2021/11/11 17:00:31;;;;;;;;;;;11.40;57.10;;;;;;5078497;28;19923;-68
2021/11/11 17:02:58;;;;;;;;;;;11.40;57.10;;;;;;5072494;28;19909;-68
2021/11/11 17:05:24;;;;;;;;;;;11.40;57.10;;;;;;5072433;28;19916;-68
2021/11/11 17:07:51;;;;;;;;;;;11.50;57.20;;;;;;5072497;28;19966;-68
2021/11/11 17:10:17;;;;;;;;;;;11.40;57.20;;;;;;5083506;28;20308;-68
2021/11/11 17:12:43;;;;;;;;;;;11.50;57.20;;;;;;5092341;28;19912;-68
2021/11/11 17:15:10;;;;;;;;;;;11.50;57.20;;;;;;5092473;28;20392;-68
2021/11/11 17:17:37;;;;;;;;;;;11.50;57.20;;;;;;5092664;28;20371;-67
2021/11/11 17:20:04;;;;;;;;;;;11.50;57.20;;;;;;5090726;28;19912;-67
2021/11/11 17:22:51;;;;;;;;;;;11.50;57.20;;;;;;5092537;28;19986;-67
2021/11/11 17:27:59;;;;;;;;;;;11.50;57.20;;;;;;5092606;28;19914;-67
2021/11/11 17:30:25;;;;;;;;;;;11.50;57.20;;;;;;5075804;28;19912;-67
2021/11/11 17:32:51;;;;;;;;;;;11.50;57.20;;;;;;5072192;28;19909;-67
2021/11/11 17:35:17;;;;;;;;;;;11.50;57.30;;;;;;5074742;28;19920;-67
2021/11/11 17:37:43;;;;;;;;;;;11.50;57.30;;;;;;5075942;28;19915;-67
2021/11/11 17:40:09;;;;;;;;;;;11.50;57.30;;;;;;5089467;28;19965;-69
2021/11/11 17:42:34;;;;;;;;;;;11.50;57.30;;;;;;5096083;28;19915;-68
2021/11/11 17:45:00;;;;;;;;;;;11.50;57.40;;;;;;5096113;28;19916;-69
2021/11/11 17:47:35;;;;;;;;;;;11.50;57.40;;;;;;5096104;28;19908;-69
2021/11/11 17:50:04;;;;;;;;;;;11.60;57.40;;;;;;5083100;28;19913;-68
2021/11/11 17:52:31;;;;;;;;;;;11.50;57.40;;;;;;5074477;28;19999;-67
2021/11/11 17:54:59;;;;;;;;;;;11.50;57.40;;;;;;5075621;28;19943;-68
2021/11/11 17:57:29;;;;;;;;;;;11.50;57.40;;;;;;5075571;28;19908;-68
2021/11/11 17:59:55;;;;;;;;;;;11.50;57.40;;;;;;5086694;28;19947;-67
2021/11/11 18:02:27;;;;;;;;;;;11.50;57.40;;;;;;5095684;28;19951;-67
2021/11/11 18:04:57;;;;;;;;;;;11.50;57.40;;;;;;5095709;28;19905;-68
2021/11/11 18:07:27;;;;;;;;;;;11.50;57.70;;;;;;5095567;28;19915;-67
2021/11/11 18:09:59;;;;;;;;;;;11.50;57.40;;;;;;5084274;28;19909;-67
2021/11/11 18:12:31;;;;;;;;;;;11.50;57.40;;;;;;5075408;28;19996;-68
2021/11/11 18:15:00;;;;;;;;;;;11.50;57.40;;;;;;5075120;28;19920;-68